Time;durP1;ratioP1;P1;durP2;ratioP2;P2;SDS_P1;SDS_P2;PMS_P1;PMS_P2;Temp;Humidity;BMP_temperature;BMP_pressure;BME280_temperature;BME280_humidity;BME280_pressure;Samples;Min_cycle;Max_cycle;Signal;HPM_P1;HPM_P2
2023/12/22 00:00:47;;;;;;;12.55;3.60;;;5.40;94.60;;;;;;5011946;28;20470;-73
2023/12/22 00:03:13;;;;;;;16.92;3.72;;;5.40;94.50;;;;;;5010332;28;20021;-72
2023/12/22 00:05:38;;;;;;;16.10;3.38;;;5.30;94.50;;;;;;5014687;28;20140;-72
2023/12/22 00:08:04;;;;;;;21.83;4.07;;;5.30;94.50;;;;;;5015440;28;20550;-72
2023/12/22 00:10:31;;;;;;;12.15;3.35;;;5.20;93.90;;;;;;5015710;28;20392;-71
2023/12/22 00:12:56;;;;;;;14.80;2.92;;;5.20;94.10;;;;;;5015050;28;20030;-72
2023/12/22 00:15:22;;;;;;;11.90;2.83;;;5.10;94.10;;;;;;5018903;28;20076;-72
2023/12/22 00:17:47;;;;;;;12.27;2.95;;;5.10;94.10;;;;;;5013611;28;20030;-72
2023/12/22 00:20:14;;;;;;;22.88;2.70;;;5.00;93.90;;;;;;5011048;28;20282;-72
2023/12/22 00:22:39;;;;;;;17.25;2.60;;;5.00;93.60;;;;;;5012873;28;20033;-72
2023/12/22 00:25:07;;;;;;;11.05;2.17;;;5.00;93.20;;;;;;5016003;28;20041;-72
2023/12/22 00:27:32;;;;;;;8.82;2.53;;;4.90;92.80;;;;;;5013991;28;20075;-72
2023/12/22 00:29:57;;;;;;;8.95;2.05;;;4.80;92.70;;;;;;5012740;28;20572;-72
2023/12/22 00:32:23;;;;;;;8.95;2.10;;;4.80;93.20;;;;;;5016019;28;20045;-72
2023/12/22 00:34:48;;;;;;;10.93;2.95;;;4.70;93.10;;;;;;5011953;28;20117;-72
2023/12/22 00:37:14;;;;;;;7.32;2.35;;;4.60;93.00;;;;;;5015443;28;20032;-72
2023/12/22 00:39:39;;;;;;;14.10;2.53;;;4.60;92.60;;;;;;5017445;28;20029;-72
2023/12/22 00:42:05;;;;;;;13.95;2.33;;;4.60;92.10;;;;;;5012613;28;20087;-70
2023/12/22 00:44:30;;;;;;;13.50;2.47;;;4.50;92.50;;;;;;5013769;28;20056;-72
2023/12/22 00:46:56;;;;;;;13.73;2.65;;;4.60;92.10;;;;;;5014953;28;20088;-72
2023/12/22 00:49:21;;;;;;;19.05;2.72;;;4.50;91.80;;;;;;5019184;28;20017;-71
2023/12/22 00:51:47;;;;;;;13.25;2.80;;;4.60;91.40;;;;;;5018877;28;20044;-72
2023/12/22 00:54:13;;;;;;;13.73;2.80;;;4.60;90.60;;;;;;5017422;28;20017;-72
2023/12/22 00:56:38;;;;;;;12.10;2.28;;;4.60;90.60;;;;;;5012394;28;20037;-71
2023/12/22 00:59:03;;;;;;;18.50;2.70;;;4.60;90.40;;;;;;5015313;28;20037;-72
2023/12/22 01:01:29;;;;;;;12.40;2.95;;;4.60;90.20;;;;;;5013058;28;20583;-71
2023/12/22 01:03:54;;;;;;;13.50;3.35;;;4.50;90.40;;;;;;5019067;28;20475;-72
2023/12/22 01:06:20;;;;;;;15.30;3.05;;;4.50;90.40;;;;;;5019513;28;20021;-72
2023/12/22 01:08:49;;;;;;;12.52;3.03;;;4.50;90.00;;;;;;5011669;28;20037;-72
2023/12/22 01:11:18;;;;;;;15.10;2.83;;;4.60;90.10;;;;;;5011018;28;20373;-72
2023/12/22 01:13:44;;;;;;;16.55;3.28;;;4.60;89.50;;;;;;5015472;28;20475;-72
2023/12/22 01:16:09;;;;;;;19.73;2.83;;;4.60;90.00;;;;;;5017039;28;20074;-72
2023/12/22 01:18:35;;;;;;;18.17;3.67;;;4.70;89.50;;;;;;5018803;28;20026;-74
2023/12/22 01:21:00;;;;;;;11.10;2.47;;;4.60;89.50;;;;;;5019145;28;20398;-54
2023/12/22 01:23:26;;;;;;;13.77;3.10;;;4.60;89.20;;;;;;5014027;28;20026;-71
2023/12/22 01:25:52;;;;;;;12.77;2.45;;;4.60;89.10;;;;;;5018820;28;20534;-72
2023/12/22 01:28:17;;;;;;;6.68;2.15;;;4.60;89.40;;;;;;5014718;28;20132;-72
2023/12/22 01:30:43;;;;;;;14.88;3.20;;;4.60;89.40;;;;;;5020784;28;20080;-73
2023/12/22 01:33:08;;;;;;;12.68;2.55;;;4.70;90.10;;;;;;5014885;28;20033;-72
2023/12/22 01:35:34;;;;;;;16.23;3.22;;;4.80;89.50;;;;;;5013314;28;20125;-72
2023/12/22 01:37:59;;;;;;;13.27;3.03;;;4.80;89.40;;;;;;5010320;28;20041;-72
2023/12/22 01:40:25;;;;;;;17.08;3.13;;;4.80;88.80;;;;;;5014356;28;20029;-72
2023/12/22 01:42:50;;;;;;;16.90;3.83;;;4.80;89.50;;;;;;5018629;28;20033;-71
2023/12/22 01:45:16;;;;;;;11.52;2.30;;;4.80;90.10;;;;;;5019746;28;20502;-72
2023/12/22 01:47:42;;;;;;;10.93;2.28;;;4.70;90.20;;;;;;5012274;28;20579;-73
2023/12/22 01:50:10;;;;;;;12.68;2.72;;;4.70;90.50;;;;;;5016314;28;20036;-72
2023/12/22 01:52:37;;;;;;;21.02;3.03;;;4.60;90.60;;;;;;5015779;28;20025;-72
2023/12/22 01:55:03;;;;;;;6.78;2.22;;;4.60;90.90;;;;;;5012998;28;20026;-72
2023/12/22 01:57:29;;;;;;;9.80;2.60;;;4.60;91.20;;;;;;5020059;28;20045;-72
2023/12/22 01:59:56;;;;;;;13.00;3.00;;;4.60;91.80;;;;;;5013284;28;20037;-71
2023/12/22 02:02:22;;;;;;;17.65;3.42;;;4.50;92.20;;;;;;5008958;28;20403;-72
2023/12/22 02:04:48;;;;;;;17.90;3.35;;;4.50;92.60;;;;;;5016247;28;20013;-72
2023/12/22 02:07:13;;;;;;;10.43;2.47;;;4.50;92.70;;;;;;5020684;28;20434;-72
2023/12/22 02:09:39;;;;;;;18.05;2.65;;;4.40;93.10;;;;;;5015720;28;20037;-72
2023/12/22 02:12:05;;;;;;;18.50;2.70;;;4.30;93.50;;;;;;5012346;28;20458;-72
2023/12/22 02:14:30;;;;;;;11.10;2.45;;;4.30;93.80;;;;;;5016664;28;20236;-66
2023/12/22 02:17:10;;;;;;;17.40;3.30;;;4.20;94.10;;;;;;5013775;28;20029;-72
2023/12/22 02:19:45;;;;;;;11.90;3.25;;;4.10;94.50;;;;;;5020395;28;20033;-72
2023/12/22 02:22:12;;;;;;;9.65;2.08;;;4.10;94.70;;;;;;5020178;28;20029;-72
2023/12/22 02:24:38;;;;;;;12.93;2.67;;;4.10;94.90;;;;;;5019721;28;20200;-72
2023/12/22 02:27:17;;;;;;;16.33;4.07;;;4.10;95.00;;;;;;5018946;28;20029;-72
2023/12/22 02:29:48;;;;;;;10.73;2.35;;;4.00;95.10;;;;;;5019853;28;20422;-73
2023/12/22 02:32:22;;;;;;;19.85;4.00;;;4.00;95.10;;;;;;5020089;28;20083;-72
2023/12/22 02:34:52;;;;;;;18.83;2.83;;;4.00;95.30;;;;;;5020304;28;20117;-72
2023/12/22 02:37:18;;;;;;;15.38;2.60;;;3.90;95.50;;;;;;5016079;28;20024;-72
2023/12/22 02:39:44;;;;;;;11.85;2.63;;;3.90;95.80;;;;;;5014400;28;20484;-72
2023/12/22 02:42:10;;;;;;;12.75;3.17;;;3.90;96.10;;;;;;5011823;28;20025;-72
2023/12/22 02:44:36;;;;;;;11.05;2.65;;;3.80;96.10;;;;;;5016058;28;20030;-71
2023/12/22 02:47:02;;;;;;;9.30;2.47;;;3.80;96.20;;;;;;5017219;28;20400;-72
2023/12/22 02:49:27;;;;;;;15.50;3.25;;;3.80;96.30;;;;;;5020250;28;20033;-72
2023/12/22 02:51:53;;;;;;;11.88;2.88;;;3.70;96.50;;;;;;5019851;28;20105;-72
2023/12/22 02:54:18;;;;;;;11.15;3.10;;;3.80;96.60;;;;;;5019869;28;20021;-72
2023/12/22 02:56:46;;;;;;;13.55;3.00;;;3.80;96.90;;;;;;5019820;28;20052;-72
2023/12/22 02:59:11;;;;;;;10.07;2.60;;;3.90;97.00;;;;;;5018363;28;20521;-72
2023/12/22 03:01:37;;;;;;;8.45;2.05;;;3.90;97.00;;;;;;5015740;28;20033;-72
2023/12/22 03:04:02;;;;;;;10.45;2.92;;;3.90;97.00;;;;;;5019731;28;20449;-72
2023/12/22 03:06:28;;;;;;;14.07;2.83;;;4.00;97.00;;;;;;5010883;28;20037;-72
2023/12/22 03:08:53;;;;;;;15.00;2.58;;;4.10;97.00;;;;;;5014670;28;20053;-72
2023/12/22 03:11:19;;;;;;;7.20;2.20;;;4.00;96.80;;;;;;5012733;28;20368;-72
2023/12/22 03:13:44;;;;;;;13.77;2.67;;;4.00;97.00;;;;;;5013361;28;20038;-73
2023/12/22 03:16:10;;;;;;;12.32;2.72;;;4.10;97.10;;;;;;5011989;28;20037;-73
2023/12/22 03:18:38;;;;;;;11.90;2.45;;;4.10;97.10;;;;;;5010197;28;20095;-72
2023/12/22 03:21:04;;;;;;;11.35;2.28;;;4.00;96.80;;;;;;5016508;28;20101;-73
2023/12/22 03:23:29;;;;;;;12.85;2.70;;;4.00;96.90;;;;;;5022160;28;20112;-72
2023/12/22 03:25:55;;;;;;;8.85;2.50;;;4.00;96.80;;;;;;5012605;28;20021;-72
2023/12/22 03:28:20;;;;;;;8.13;2.05;;;4.00;97.10;;;;;;5016684;28;20106;-70
2023/12/22 03:30:46;;;;;;;4.35;1.92;;;4.00;97.10;;;;;;5020319;28;20031;-73
2023/12/22 03:33:11;;;;;;;11.15;2.42;;;3.90;97.00;;;;;;5020064;28;20178;-72
2023/12/22 03:35:37;;;;;;;13.77;2.40;;;3.90;97.30;;;;;;5019852;28;20018;-73
2023/12/22 03:38:03;;;;;;;10.98;1.90;;;4.00;96.90;;;;;;5019615;28;20053;-72
2023/12/22 03:40:29;;;;;;;10.90;2.00;;;4.00;96.70;;;;;;5019839;28;20434;-72
2023/12/22 03:42:55;;;;;;;10.73;1.85;;;4.00;96.20;;;;;;5016903;28;20072;-73
2023/12/22 03:45:21;;;;;;;7.38;1.80;;;4.00;96.30;;;;;;5017644;28;20499;-72
2023/12/22 03:47:46;;;;;;;11.15;2.53;;;3.90;96.10;;;;;;5021176;28;20028;-72
2023/12/22 03:50:12;;;;;;;10.43;2.58;;;3.90;96.30;;;;;;5023824;28;20021;-72
2023/12/22 03:52:37;;;;;;;11.93;2.67;;;3.80;96.20;;;;;;5022389;28;20552;-73
2023/12/22 03:55:03;;;;;;;11.93;1.70;;;3.80;96.90;;;;;;5023378;28;20407;-72
2023/12/22 03:57:28;;;;;;;8.55;2.10;;;3.80;97.00;;;;;;5023329;28;20069;-72
2023/12/22 03:59:54;;;;;;;10.52;1.92;;;3.70;97.50;;;;;;5025444;28;20025;-72
2023/12/22 04:02:20;;;;;;;16.20;2.80;;;3.70;97.60;;;;;;5017757;28;20449;-73
2023/12/22 04:04:45;;;;;;;8.30;1.60;;;3.60;97.90;;;;;;5019412;28;20045;-73
2023/12/22 04:07:11;;;;;;;9.63;1.90;;;3.60;98.00;;;;;;5019446;28;20099;-72
2023/12/22 04:09:39;;;;;;;13.52;2.30;;;3.50;98.40;;;;;;5023374;28;20025;-73
2023/12/22 04:12:05;;;;;;;8.88;1.80;;;3.50;98.90;;;;;;5022192;28;20044;-72
2023/12/22 04:14:30;;;;;;;10.27;2.92;;;3.50;98.90;;;;;;5022910;28;20487;-72
2023/12/22 04:16:57;;;;;;;9.35;1.80;;;3.60;99.10;;;;;;5024980;28;20040;-73
2023/12/22 04:19:22;;;;;;;11.10;2.40;;;3.60;99.40;;;;;;5023288;28;20085;-73
2023/12/22 04:21:48;;;;;;;9.90;2.22;;;3.60;99.50;;;;;;5023162;28;20029;-72
2023/12/22 04:24:14;;;;;;;10.43;2.08;;;3.70;99.40;;;;;;5022816;28;20026;-72
2023/12/22 04:26:39;;;;;;;10.23;1.83;;;3.70;99.40;;;;;;5023082;28;20172;-72
2023/12/22 04:29:05;;;;;;;7.93;2.00;;;3.70;99.50;;;;;;5023166;28;20034;-73
2023/12/22 04:31:30;;;;;;;6.95;1.35;;;3.60;99.70;;;;;;5024901;28;20439;-73
2023/12/22 04:33:56;;;;;;;8.40;1.67;;;3.70;99.80;;;;;;5021044;28;20029;-73
2023/12/22 04:36:21;;;;;;;11.05;1.75;;;3.70;99.80;;;;;;5022978;28;20088;-72
2023/12/22 04:38:47;;;;;;;7.47;1.30;;;3.70;99.80;;;;;;5022538;28;20026;-73
2023/12/22 04:41:13;;;;;;;8.20;1.75;;;3.70;99.90;;;;;;5022763;28;20032;-73
2023/12/22 04:43:38;;;;;;;2.13;0.90;;;3.70;99.90;;;;;;5018613;28;20038;-71
2023/12/22 04:46:03;;;;;;;4.82;1.23;;;3.70;99.90;;;;;;5020474;28;20033;-72
2023/12/22 04:48:29;;;;;;;9.40;1.67;;;3.70;99.90;;;;;;5022580;28;20030;-72
2023/12/22 04:50:54;;;;;;;6.18;1.42;;;3.70;99.90;;;;;;5022396;28;20029;-72
2023/12/22 04:53:20;;;;;;;5.03;1.45;;;3.70;99.90;;;;;;5018596;28;20442;-72
2023/12/22 04:55:46;;;;;;;4.28;0.70;;;3.70;99.90;;;;;;5022658;28;20064;-72
2023/12/22 04:58:11;;;;;;;4.05;1.00;;;3.70;99.90;;;;;;5019711;28;20042;-73
2023/12/22 05:00:37;;;;;;;4.47;1.20;;;3.70;99.90;;;;;;5022423;28;20037;-72
2023/12/22 05:03:03;;;;;;;4.28;1.23;;;3.70;99.90;;;;;;5018666;28;20084;-73
2023/12/22 05:05:29;;;;;;;8.15;1.20;;;3.70;99.90;;;;;;5022415;28;20045;-73
2023/12/22 05:07:54;;;;;;;5.75;1.92;;;3.70;99.90;;;;;;5022235;28;20551;-72
2023/12/22 05:10:20;;;;;;;5.93;1.20;;;3.70;99.90;;;;;;5022371;28;20025;-73
2023/12/22 05:12:45;;;;;;;4.95;1.30;;;3.70;99.90;;;;;;5020785;28;20041;-73
2023/12/22 05:15:11;;;;;;;5.50;1.25;;;3.70;99.90;;;;;;5021847;28;20033;-73
2023/12/22 05:17:36;;;;;;;5.70;1.45;;;3.80;99.90;;;;;;5024047;28;20079;-74
2023/12/22 05:20:02;;;;;;;3.20;0.93;;;3.80;99.90;;;;;;5022043;28;20040;-73
2023/12/22 05:22:29;;;;;;;2.33;0.93;;;3.80;99.90;;;;;;5022062;28;20025;-74
2023/12/22 05:24:55;;;;;;;7.63;1.58;;;3.70;99.90;;;;;;5021655;28;20041;-73
2023/12/22 05:27:21;;;;;;;6.20;0.82;;;3.80;99.90;;;;;;5021906;28;20017;-73
2023/12/22 05:29:46;;;;;;;4.70;0.90;;;3.70;99.90;;;;;;5017953;28;20029;-71
2023/12/22 05:32:12;;;;;;;4.13;0.73;;;3.80;99.90;;;;;;5020761;28;20597;-73
2023/12/22 05:34:38;;;;;;;2.80;0.70;;;3.70;99.90;;;;;;5020443;28;20030;-72
2023/12/22 05:37:03;;;;;;;4.65;0.90;;;3.70;99.90;;;;;;5020762;28;20044;-72
2023/12/22 05:39:29;;;;;;;1.25;0.60;;;3.70;99.90;;;;;;5020568;28;20513;-71
2023/12/22 05:41:54;;;;;;;2.08;1.25;;;3.70;99.90;;;;;;5020375;28;20029;-71
2023/12/22 05:44:20;;;;;;;4.57;1.23;;;3.70;99.90;;;;;;5017388;28;20030;-71
2023/12/22 05:46:45;;;;;;;2.92;0.90;;;3.70;99.90;;;;;;5017664;28;20049;-71
2023/12/22 05:49:11;;;;;;;4.68;1.02;;;3.60;99.90;;;;;;5023460;28;20053;-72
2023/12/22 05:51:40;;;;;;;2.67;0.50;;;3.60;99.90;;;;;;5021577;28;20483;-72
2023/12/22 05:54:08;;;;;;;3.15;0.93;;;3.60;99.90;;;;;;5021483;28;20779;-72
2023/12/22 05:56:33;;;;;;;3.55;1.27;;;3.60;99.90;;;;;;5019661;28;20510;-71
2023/12/22 05:58:59;;;;;;;2.28;0.50;;;3.60;99.90;;;;;;5020248;28;20111;-72
2023/12/22 06:01:25;;;;;;;5.13;1.00;;;3.60;99.90;;;;;;5015748;28;20091;-71
2023/12/22 06:03:50;;;;;;;3.00;0.63;;;3.60;99.90;;;;;;5015694;28;20032;-79
2023/12/22 06:06:16;;;;;;;5.95;0.80;;;3.60;99.90;;;;;;5019445;28;20029;-73
2023/12/22 06:08:42;;;;;;;8.13;0.88;;;3.70;99.90;;;;;;5017701;28;20544;-74
2023/12/22 06:11:07;;;;;;;3.05;0.85;;;3.70;99.90;;;;;;5022724;28;20029;-75
2023/12/22 06:13:33;;;;;;;3.95;0.98;;;3.70;99.90;;;;;;5018720;28;20033;-73
2023/12/22 06:15:58;;;;;;;6.78;0.75;;;3.70;99.90;;;;;;5014695;28;20022;-75
2023/12/22 06:18:23;;;;;;;4.65;0.90;;;3.70;99.90;;;;;;5016050;28;20475;-75
2023/12/22 06:20:50;;;;;;;3.65;0.70;;;3.60;99.90;;;;;;5019607;28;20029;-73
2023/12/22 06:23:15;;;;;;;3.10;0.77;;;3.60;99.90;;;;;;5019236;28;20106;-72
2023/12/22 06:25:40;;;;;;;4.65;1.10;;;3.60;99.90;;;;;;5017977;28;20458;-72
2023/12/22 06:28:06;;;;;;;3.20;1.30;;;3.60;99.90;;;;;;5018568;28;20030;-74
2023/12/22 06:30:31;;;;;;;3.03;1.10;;;3.60;99.90;;;;;;5018155;28;20040;-75
2023/12/22 06:32:57;;;;;;;5.65;1.00;;;3.70;99.90;;;;;;5018478;28;20525;-73
2023/12/22 06:35:25;;;;;;;6.55;1.48;;;3.60;99.90;;;;;;5013556;28;20036;-76
2023/12/22 06:37:51;;;;;;;7.57;1.23;;;3.60;99.90;;;;;;5013010;28;20026;-75
2023/12/22 06:40:17;;;;;;;5.57;1.27;;;3.50;99.90;;;;;;5017460;28;20029;-77
2023/12/22 06:42:42;;;;;;;3.35;0.88;;;3.50;99.90;;;;;;5012560;28;20053;-72
2023/12/22 06:45:10;;;;;;;3.05;1.10;;;3.50;99.90;;;;;;5013275;28;20033;-72
2023/12/22 06:47:36;;;;;;;6.18;0.90;;;3.50;99.90;;;;;;5014647;28;20491;-75
2023/12/22 06:50:01;;;;;;;5.45;1.13;;;3.50;99.90;;;;;;5014627;28;20033;-73
2023/12/22 06:52:26;;;;;;;6.25;1.27;;;3.50;99.90;;;;;;5013198;28;20030;-78
2023/12/22 06:54:52;;;;;;;6.55;1.00;;;3.60;99.60;;;;;;5013213;28;20094;-73
2023/12/22 06:57:17;;;;;;;5.30;1.00;;;3.60;99.40;;;;;;5014966;28;20040;-76
2023/12/22 06:59:43;;;;;;;3.42;1.10;;;3.70;98.50;;;;;;5018699;28;20178;-73
2023/12/22 07:02:09;;;;;;;6.72;1.27;;;3.70;98.30;;;;;;5010122;28;20021;-72
2023/12/22 07:05:11;;;;;;;7.40;0.88;;;3.70;98.00;;;;;;5016017;28;20084;-76
2023/12/22 07:07:37;;;;;;;5.80;1.77;;;3.70;97.60;;;;;;5014342;28;20045;-72
2023/12/22 07:10:02;;;;;;;3.78;1.00;;;3.70;97.70;;;;;;5019178;28;20025;-74
2023/12/22 07:12:28;;;;;;;5.00;1.02;;;3.70;97.30;;;;;;5019427;28;20034;-74
2023/12/22 07:14:54;;;;;;;4.53;0.80;;;3.80;97.70;;;;;;5017499;28;20068;-74
2023/12/22 07:17:19;;;;;;;2.90;0.80;;;3.80;97.50;;;;;;5018246;28;20022;-74
2023/12/22 07:19:45;;;;;;;5.10;0.90;;;3.80;98.00;;;;;;5016433;28;20025;-78
2023/12/22 07:22:14;;;;;;;4.00;0.75;;;3.80;98.50;;;;;;5015634;28;20025;-52
2023/12/22 07:24:39;;;;;;;6.60;1.20;;;3.80;99.20;;;;;;5014546;28;20033;-54
2023/12/22 07:27:05;;;;;;;1.55;0.63;;;3.70;99.90;;;;;;5020460;28;20033;-76
2023/12/22 07:29:30;;;;;;;2.22;0.70;;;3.70;99.90;;;;;;5017125;28;20126;-73
2023/12/22 07:31:56;;;;;;;3.97;1.00;;;3.60;99.90;;;;;;5015750;28;20068;-73
2023/12/22 07:34:22;;;;;;;5.13;0.77;;;3.60;99.90;;;;;;5018661;28;20033;-74
2023/12/22 07:36:47;;;;;;;5.55;1.05;;;3.50;99.90;;;;;;5018022;28;20411;-73
2023/12/22 07:39:14;;;;;;;3.15;0.80;;;3.40;99.90;;;;;;5012860;28;20026;-74
2023/12/22 07:41:40;;;;;;;2.20;0.80;;;3.40;99.90;;;;;;5019616;28;20550;-72
2023/12/22 07:44:05;;;;;;;3.10;1.10;;;3.30;99.90;;;;;;5018867;28;20038;-73
2023/12/22 07:46:31;;;;;;;2.88;1.13;;;3.20;99.90;;;;;;5018320;28;20053;-72
2023/12/22 07:48:56;;;;;;;7.20;1.30;;;3.20;99.90;;;;;;5018505;28;20025;-74
2023/12/22 07:51:22;;;;;;;8.15;1.42;;;3.20;99.90;;;;;;5018733;28;20051;-73
2023/12/22 07:53:47;;;;;;;6.72;1.55;;;3.10;99.90;;;;;;5016026;28;20031;-73
2023/12/22 07:56:13;;;;;;;5.55;1.63;;;3.10;99.90;;;;;;5020530;28;20032;-75
2023/12/22 07:58:39;;;;;;;3.97;1.00;;;3.10;99.90;;;;;;5017035;28;20045;-75
2023/12/22 08:01:05;;;;;;;5.60;1.35;;;3.10;99.90;;;;;;5017717;28;20492;-74
2023/12/22 08:03:31;;;;;;;9.98;1.35;;;3.00;99.90;;;;;;5012362;28;20029;-75
2023/12/22 08:05:57;;;;;;;8.30;1.20;;;3.10;99.90;;;;;;5015416;28;20025;-74
2023/12/22 08:08:22;;;;;;;9.25;1.30;;;3.10;99.90;;;;;;5016117;28;20053;-74
2023/12/22 08:10:48;;;;;;;9.15;2.10;;;3.10;99.90;;;;;;5017832;28;20543;-71
2023/12/22 08:13:13;;;;;;;7.57;1.40;;;3.10;99.90;;;;;;5019817;28;20056;-70
2023/12/22 08:15:39;;;;;;;13.45;1.60;;;3.20;99.90;;;;;;5017935;28;20701;-72
2023/12/22 08:18:05;;;;;;;10.30;2.63;;;3.20;99.90;;;;;;5019363;28;23095;-72
2023/12/22 08:20:30;;;;;;;10.70;1.73;;;3.20;99.90;;;;;;5018919;28;20034;-72
2023/12/22 08:22:56;;;;;;;6.78;1.90;;;3.30;99.90;;;;;;5019206;28;20049;-73
2023/12/22 08:25:21;;;;;;;7.80;1.30;;;3.30;99.90;;;;;;5017714;28;20091;-71
2023/12/22 08:27:47;;;;;;;8.45;1.65;;;3.40;99.90;;;;;;5020927;28;20056;-72
2023/12/22 08:30:13;;;;;;;6.63;1.45;;;3.50;99.80;;;;;;5019241;28;20457;-72
2023/12/22 08:32:39;;;;;;;8.45;1.70;;;3.50;99.60;;;;;;5019853;28;20026;-72
2023/12/22 08:35:05;;;;;;;9.80;2.00;;;3.60;99.40;;;;;;5021106;28;20036;-72
2023/12/22 08:37:31;;;;;;;7.47;1.45;;;3.70;99.40;;;;;;5022285;28;20093;-71
2023/12/22 08:39:57;;;;;;;8.88;1.52;;;3.80;98.90;;;;;;5022270;28;20522;-70
2023/12/22 08:42:23;;;;;;;8.43;1.50;;;3.90;98.00;;;;;;5024429;28;20025;-72
2023/12/22 08:44:48;;;;;;;6.93;1.10;;;4.00;97.40;;;;;;5019109;28;20197;-72
2023/12/22 08:47:14;;;;;;;9.40;1.40;;;4.10;97.20;;;;;;5021516;28;20029;-72
2023/12/22 08:49:39;;;;;;;6.47;1.30;;;4.20;96.30;;;;;;5022347;28;20088;-71
2023/12/22 08:52:05;;;;;;;5.28;1.30;;;4.20;96.20;;;;;;5022350;28;20520;-71
2023/12/22 08:54:30;;;;;;;10.38;1.63;;;4.20;95.80;;;;;;5022203;28;20562;-71
2023/12/22 08:56:56;;;;;;;5.95;1.52;;;4.20;95.50;;;;;;5021693;28;20061;-71
2023/12/22 08:59:22;;;;;;;11.68;1.80;;;4.30;95.40;;;;;;5023683;28;20028;-71
2023/12/22 09:01:48;;;;;;;7.10;1.10;;;4.30;95.60;;;;;;5016210;28;20037;-71
2023/12/22 09:04:13;;;;;;;10.55;1.58;;;4.40;94.70;;;;;;5021938;28;20037;-72
2023/12/22 09:06:39;;;;;;;6.53;1.73;;;4.40;94.60;;;;;;5022062;28;20033;-71
2023/12/22 09:09:05;;;;;;;8.05;1.45;;;4.40;94.40;;;;;;5022084;28;20029;-71
2023/12/22 09:11:30;;;;;;;7.13;1.65;;;4.50;94.10;;;;;;5021885;28;20088;-72
2023/12/22 09:13:56;;;;;;;5.50;1.30;;;4.50;94.10;;;;;;5023693;28;20095;-71
2023/12/22 09:16:22;;;;;;;10.30;1.63;;;4.50;93.50;;;;;;5021691;28;20040;-71
2023/12/22 09:18:49;;;;;;;10.70;1.90;;;4.50;93.90;;;;;;5021642;28;20403;-71
2023/12/22 09:21:15;;;;;;;8.05;2.38;;;4.50;93.00;;;;;;5017567;28;20032;-71
2023/12/22 09:23:44;;;;;;;10.95;1.80;;;4.50;93.00;;;;;;5021597;28;20033;-71
2023/12/22 09:26:09;;;;;;;9.77;2.30;;;4.50;92.90;;;;;;5021752;28;20229;-73
2023/12/22 09:28:35;;;;;;;5.05;1.50;;;4.60;92.50;;;;;;5022285;28;20056;-73
2023/12/22 09:31:02;;;;;;;8.00;1.15;;;4.70;92.00;;;;;;5019289;28;20037;-73
2023/12/22 09:33:27;;;;;;;8.70;1.50;;;4.70;92.10;;;;;;5014365;28;20499;-72
2023/12/22 09:35:52;;;;;;;6.85;1.50;;;4.80;92.10;;;;;;5020245;28;20037;-73
2023/12/22 09:38:18;;;;;;;9.70;2.22;;;4.80;91.80;;;;;;5021250;28;20080;-73
2023/12/22 09:40:44;;;;;;;12.60;2.03;;;4.70;91.50;;;;;;5021056;28;20642;-75
2023/12/22 09:43:12;;;;;;;15.77;2.40;;;4.70;91.50;;;;;;5023152;28;20021;-73
2023/12/22 09:45:39;;;;;;;15.38;2.10;;;4.70;91.00;;;;;;5021431;28;20037;-73
2023/12/22 09:48:06;;;;;;;10.43;2.55;;;4.70;90.60;;;;;;5021248;28;20022;-73
2023/12/22 09:50:33;;;;;;;7.63;1.38;;;4.80;90.80;;;;;;5021225;28;20049;-73
2023/12/22 09:53:00;;;;;;;9.00;1.77;;;4.70;90.60;;;;;;5021066;28;20040;-73
2023/12/22 09:55:26;;;;;;;10.80;2.28;;;4.70;90.70;;;;;;5020956;28;20686;-74
2023/12/22 09:57:54;;;;;;;9.18;1.50;;;4.70;90.20;;;;;;5020628;28;20417;-73
2023/12/22 10:00:21;;;;;;;12.20;1.90;;;4.70;90.20;;;;;;5020869;28;20406;-73
2023/12/22 10:02:46;;;;;;;7.95;1.70;;;4.80;90.30;;;;;;5017726;28;20514;-73
2023/12/22 10:05:15;;;;;;;7.55;1.63;;;4.80;90.10;;;;;;5022724;28;20021;-73
2023/12/22 10:07:44;;;;;;;10.60;1.70;;;4.90;89.60;;;;;;5018880;28;20079;-73
2023/12/22 10:10:11;;;;;;;11.45;2.67;;;5.00;88.80;;;;;;5020158;28;20498;-73
2023/12/22 10:12:39;;;;;;;10.90;1.63;;;5.00;87.80;;;;;;5020466;28;20072;-73
2023/12/22 10:15:06;;;;;;;11.95;2.13;;;5.10;87.00;;;;;;5020894;28;20025;-74
2023/12/22 10:17:33;;;;;;;14.85;2.85;;;5.10;86.90;;;;;;5020517;28;20022;-73
2023/12/22 10:19:59;;;;;;;11.18;2.15;;;5.20;86.60;;;;;;5020455;28;20025;-74
2023/12/22 10:22:24;;;;;;;12.30;1.95;;;5.10;85.20;;;;;;5020418;28;20040;-73
2023/12/22 10:24:52;;;;;;;9.20;2.28;;;5.10;84.80;;;;;;5020831;28;20029;-73
2023/12/22 10:27:22;;;;;;;16.98;3.60;;;5.00;85.00;;;;;;5018435;28;20107;-73
2023/12/22 10:29:55;;;;;;;11.63;2.70;;;5.00;83.90;;;;;;5018471;28;20047;-73
2023/12/22 10:32:21;;;;;;;18.63;2.83;;;5.00;84.40;;;;;;5018729;28;20135;-73
2023/12/22 10:34:47;;;;;;;14.75;2.10;;;4.90;84.50;;;;;;5020264;28;20162;-73
2023/12/22 10:37:13;;;;;;;7.75;1.90;;;4.90;84.30;;;;;;5020254;28;20028;-73
2023/12/22 10:39:39;;;;;;;12.55;2.13;;;4.80;84.40;;;;;;5020369;28;20022;-73
2023/12/22 10:42:05;;;;;;;21.27;3.17;;;4.80;84.30;;;;;;5020042;28;20796;-73
2023/12/22 10:44:30;;;;;;;15.68;2.28;;;4.70;84.30;;;;;;5019849;28;20029;-73
2023/12/22 10:47:00;;;;;;;8.02;2.50;;;4.70;84.40;;;;;;5019900;28;20029;-73
2023/12/22 10:49:26;;;;;;;8.73;2.75;;;4.60;84.60;;;;;;5020097;28;20132;-66
2023/12/22 10:51:52;;;;;;;14.93;2.70;;;4.60;84.70;;;;;;5021863;28;20029;-74
2023/12/22 10:54:18;;;;;;;14.82;2.70;;;4.70;84.90;;;;;;5020056;28;20017;-73
2023/12/22 10:56:44;;;;;;;15.20;4.20;;;4.70;84.80;;;;;;5018963;28;20025;-73
2023/12/22 10:59:10;;;;;;;13.68;2.95;;;4.70;85.00;;;;;;5019842;28;20091;-73
2023/12/22 11:01:39;;;;;;;9.73;2.30;;;4.80;84.80;;;;;;5010211;28;20038;-72
2023/12/22 11:04:07;;;;;;;16.88;3.72;;;4.80;84.40;;;;;;5019716;28;20026;-72
2023/12/22 11:06:38;;;;;;;10.02;2.95;;;4.90;84.70;;;;;;5019847;28;20022;-72
2023/12/22 11:09:10;;;;;;;12.60;2.92;;;5.00;84.20;;;;;;5019581;28;20049;-73
2023/12/22 11:11:37;;;;;;;12.60;2.45;;;5.00;83.50;;;;;;5019885;28;20033;-73
2023/12/22 11:14:04;;;;;;;11.45;3.33;;;5.00;83.30;;;;;;5019733;28;20018;-73
2023/12/22 11:16:30;;;;;;;6.95;2.30;;;5.00;82.60;;;;;;5021694;28;20030;-72
2023/12/22 11:18:56;;;;;;;8.05;2.00;;;5.10;83.50;;;;;;5021511;28;20505;-73
2023/12/22 11:21:22;;;;;;;12.93;2.90;;;5.10;83.50;;;;;;5019608;28;20025;-73
2023/12/22 11:23:50;;;;;;;12.07;2.45;;;5.20;83.30;;;;;;5019671;28;20025;-74
2023/12/22 11:26:17;;;;;;;13.90;2.40;;;5.10;81.90;;;;;;5019479;28;20036;-73
2023/12/22 11:28:45;;;;;;;10.60;1.88;;;5.20;82.20;;;;;;5019509;28;20029;-72
2023/12/22 11:31:11;;;;;;;10.15;1.90;;;5.20;82.50;;;;;;5019625;28;20017;-73
2023/12/22 11:33:37;;;;;;;13.80;2.60;;;5.20;82.70;;;;;;5019754;28;20033;-73
2023/12/22 11:36:04;;;;;;;7.78;2.33;;;5.20;83.30;;;;;;5019567;28;20364;-73
2023/12/22 11:38:31;;;;;;;11.80;2.13;;;5.20;82.40;;;;;;5021159;28;20021;-73
2023/12/22 11:41:00;;;;;;;9.48;2.20;;;5.20;83.10;;;;;;5017393;28;20487;-73
2023/12/22 11:43:26;;;;;;;10.65;2.08;;;5.20;81.60;;;;;;5017242;28;20025;-73
2023/12/22 11:45:51;;;;;;;19.38;2.65;;;5.20;81.90;;;;;;5019099;28;20038;-73
2023/12/22 11:48:17;;;;;;;12.63;2.40;;;5.20;81.80;;;;;;5019536;28;20415;-73
2023/12/22 11:50:43;;;;;;;16.45;2.75;;;5.30;81.70;;;;;;5019322;28;20398;-72
2023/12/22 11:53:18;;;;;;;13.40;2.72;;;5.20;81.90;;;;;;5019258;28;20039;-72
2023/12/22 11:55:58;;;;;;;11.23;2.35;;;5.30;81.20;;;;;;5018225;28;20056;-73
2023/12/22 11:58:36;;;;;;;8.02;1.92;;;5.40;80.60;;;;;;5019050;28;20411;-74
2023/12/22 12:01:06;;;;;;;10.63;2.60;;;5.30;80.50;;;;;;5015774;28;20054;-72
2023/12/22 12:03:32;;;;;;;6.60;1.83;;;5.30;79.80;;;;;;5016524;28;20037;-75
2023/12/22 12:06:21;;;;;;;10.65;2.58;;;5.30;79.80;;;;;;5021191;28;20044;-73
2023/12/22 12:08:48;;;;;;;8.60;2.00;;;5.20;78.90;;;;;;5019319;28;20040;-73
2023/12/22 12:11:14;;;;;;;6.32;1.77;;;5.20;79.90;;;;;;5022833;28;20021;-73
2023/12/22 12:13:47;;;;;;;11.27;1.55;;;5.10;79.10;;;;;;5022741;28;20037;-73
2023/12/22 12:16:14;;;;;;;12.95;2.42;;;5.10;79.20;;;;;;5022957;28;20537;-73
2023/12/22 12:18:40;;;;;;;11.48;2.53;;;5.00;79.40;;;;;;5022771;28;20033;-73
2023/12/22 12:21:07;;;;;;;6.22;1.83;;;5.10;79.40;;;;;;5022834;28;20429;-72
2023/12/22 12:23:33;;;;;;;9.60;1.30;;;5.10;79.20;;;;;;5024458;28;20097;-73
2023/12/22 12:25:59;;;;;;;10.75;1.90;;;5.20;79.10;;;;;;5021227;28;20052;-72
2023/12/22 12:28:27;;;;;;;7.65;1.92;;;5.20;78.50;;;;;;5022384;28;20064;-72
2023/12/22 12:31:02;;;;;;;9.48;1.80;;;5.20;78.00;;;;;;5022534;28;20502;-72
2023/12/22 12:33:28;;;;;;;15.15;1.85;;;5.30;77.30;;;;;;5022603;28;20038;-72
2023/12/22 12:35:58;;;;;;;13.00;2.53;;;5.30;76.60;;;;;;5022218;28;20028;-72
2023/12/22 12:38:51;;;;;;;9.93;2.70;;;5.40;76.50;;;;;;5019925;28;20017;-74
2023/12/22 12:41:25;;;;;;;13.32;2.65;;;5.40;76.30;;;;;;5020504;28;20038;-72
2023/12/22 12:43:52;;;;;;;11.55;1.85;;;5.40;74.90;;;;;;5022247;28;20563;-73
2023/12/22 12:46:18;;;;;;;8.48;1.80;;;5.30;75.70;;;;;;5022725;28;20067;-73
2023/12/22 12:48:43;;;;;;;11.40;1.73;;;5.30;76.20;;;;;;5021170;28;20021;-73